Kezdőlap
METAR-TAF:

METAR-TAF

Repülőterek :

Worthington Municipal Airport

Worthington, Minnesota, Amerikai Egyesült Államok

földrajzi szélesség: 43-39N, földrajzi hosszúság: 095-35W, magasság: 480 m

Jelenlegi meteorológiai megfigyelések

A jelentés 19 perccel ezelõtt készült, 17:56 UTC
Dél-délkeleti szél 17 kt széllökések: 22 kt
Hőmérséklet 12°C
Páratartalom 67%
Légköri nyomás 1011 hPa
Látótávolság: 16.1 km
Derült ég

METAR: KOTG 011756Z AUTO 16017G22KT 10SM CLR 12/06 A2984 RMK AO2 SLP113 T01170056 10117 20022 58011

Idő: 13:15 (18:15 UTC)


TAF: hiányzik

Meteorológiai megfigyelések és előrejelzések több, mint 4000 repülőtéren (METAR és TAF jelentéseket).

A térképen piros és sárga pontok jelzik az elérhető meteorológiai állomásokat.

Mozgassa az egeret a pont fölött, hogy megjelenjen az állomás neve.

Azután kattintson az időjárási megfigyelések és előrejelzések megtekintéséhez.

A térkép megváltoztatása: kattintson a fekete keresztel jelölt zöld gombra ráközelítéshez, a vonallal jelölt zöld gombra távolításhoz, vagy a zöld nyilakra a szomszédos térképek eléréséhez.


METAR-TAF: